Time;durP1;ratioP1;P1;durP2;ratioP2;P2;SDS_P1;SDS_P2;PMS_P1;PMS_P2;Temp;Humidity;BMP_temperature;BMP_pressure;BME280_temperature;BME280_humidity;BME280_pressure;Samples;Min_cycle;Max_cycle;Signal;HPM_P1;HPM_P2
2022/04/24 00:00:29;;;;;;;9.48;8.50;;;15.30;99.90;;;15.66;47.57;100248.16;5073783;28;20067;-66
2022/04/24 00:02:58;;;;;;;12.15;8.60;;;15.30;99.90;;;15.63;47.20;100253.56;5073977;28;20163;-66
2022/04/24 00:05:27;;;;;;;9.68;8.77;;;15.30;99.90;;;15.55;47.28;100236.97;5073696;28;20054;-67
2022/04/24 00:07:55;;;;;;;10.27;8.20;;;15.30;99.90;;;15.54;47.74;100244.13;5073873;28;20056;-67
2022/04/24 00:10:25;;;;;;;10.13;9.00;;;15.30;99.90;;;15.52;47.58;100239.75;5073842;28;20131;-66
2022/04/24 00:12:54;;;;;;;9.23;8.32;;;15.20;99.90;;;15.33;47.61;100211.03;5073455;28;20486;-67
2022/04/24 00:15:22;;;;;;;9.43;8.52;;;15.20;99.90;;;15.58;47.98;100244.88;5073544;28;20075;-67
2022/04/24 00:17:52;;;;;;;9.68;8.70;;;15.20;99.90;;;15.43;47.57;100235.59;5073505;28;20131;-66
2022/04/24 00:20:20;;;;;;;9.98;8.35;;;15.20;99.90;;;15.42;48.15;100236.53;5073458;28;20075;-66
2022/04/24 00:22:48;;;;;;;9.38;8.07;;;15.20;99.90;;;15.39;48.27;100239.25;5073907;28;20098;-66
2022/04/24 00:25:17;;;;;;;9.50;8.48;;;15.10;99.90;;;15.44;48.57;100247.13;5073389;28;20055;-67
2022/04/24 00:27:45;;;;;;;9.75;8.25;;;15.10;99.90;;;15.43;48.53;100248.94;5072823;28;20048;-67
2022/04/24 00:30:14;;;;;;;8.73;7.90;;;15.10;99.90;;;15.53;48.53;100249.47;5072698;28;20148;-66
2022/04/24 00:32:42;;;;;;;9.70;8.07;;;15.20;99.90;;;15.50;49.09;100247.81;5073263;28;20562;-66
2022/04/24 00:35:12;;;;;;;10.80;8.63;;;15.20;99.90;;;15.47;48.90;100247.03;5073395;28;20465;-67
2022/04/24 00:37:41;;;;;;;9.63;8.73;;;15.20;99.90;;;15.48;49.09;100248.78;5073537;28;20482;-67
2022/04/24 00:40:11;;;;;;;9.63;8.63;;;15.20;99.90;;;15.49;48.99;100247.84;5073180;28;20095;-66
2022/04/24 00:42:40;;;;;;;10.32;9.18;;;15.10;99.90;;;15.49;49.10;100248.72;5073182;28;20383;-66
2022/04/24 00:45:09;;;;;;;9.60;8.75;;;15.20;99.90;;;15.42;49.19;100238.31;5073398;28;20045;-66
2022/04/24 00:47:44;;;;;;;9.88;8.90;;;15.10;99.90;;;15.41;49.25;100241.91;5055506;28;20052;-66
2022/04/24 00:50:14;;;;;;;10.23;9.32;;;15.10;99.90;;;15.42;49.42;100233.00;5072756;28;20076;-66
2022/04/24 00:52:42;;;;;;;9.80;8.90;;;15.10;99.90;;;15.42;49.53;100238.31;5073346;28;20048;-66
2022/04/24 00:55:11;;;;;;;10.00;8.95;;;15.10;99.90;;;15.35;49.31;100234.94;5072879;28;20769;-66
2022/04/24 00:57:41;;;;;;;10.85;9.52;;;15.10;99.90;;;15.38;49.78;100233.09;5072944;28;20068;-67
2022/04/24 01:00:11;;;;;;;10.48;9.50;;;15.10;99.90;;;15.33;49.62;100229.69;5073196;28;20052;-67
2022/04/24 01:02:40;;;;;;;11.77;9.93;;;15.10;99.90;;;15.38;49.74;100227.75;5073234;28;20473;-66
2022/04/24 01:05:10;;;;;;;10.10;9.20;;;15.10;99.90;;;15.41;49.66;100225.91;5072879;28;20501;-67
2022/04/24 01:07:39;;;;;;;10.43;9.40;;;15.10;99.90;;;15.14;50.08;100215.25;5072956;28;20079;-67
2022/04/24 01:10:09;;;;;;;10.93;9.93;;;15.00;99.90;;;15.16;50.34;100226.72;5073192;28;20123;-67
2022/04/24 01:12:37;;;;;;;10.82;9.82;;;14.90;99.90;;;15.25;50.01;100236.22;5055158;28;20080;-66
2022/04/24 01:15:07;;;;;;;11.88;9.32;;;15.00;99.90;;;15.28;49.72;100252.09;5055056;28;20045;-66
2022/04/24 01:17:36;;;;;;;10.98;9.98;;;14.90;99.90;;;15.26;50.17;100227.28;5073142;28;20425;-66
2022/04/24 01:20:06;;;;;;;10.38;9.38;;;15.00;99.90;;;15.18;50.32;100218.66;5073100;28;20048;-66
2022/04/24 01:22:36;;;;;;;12.57;9.85;;;15.00;99.90;;;15.19;50.11;100228.41;5072992;28;20405;-67
2022/04/24 01:25:08;;;;;;;10.90;9.70;;;14.90;99.90;;;15.11;50.36;100234.00;5055049;28;20090;-66
2022/04/24 01:27:36;;;;;;;10.98;9.88;;;14.80;99.90;;;15.14;50.62;100222.34;5055021;28;20559;-67
2022/04/24 01:30:07;;;;;;;13.52;10.15;;;14.80;99.90;;;15.21;50.32;100235.41;5072658;28;20439;-67
2022/04/24 01:32:38;;;;;;;11.00;9.93;;;14.90;99.90;;;15.17;50.27;100232.94;5073031;28;20114;-67
2022/04/24 01:35:08;;;;;;;10.63;9.52;;;14.90;99.90;;;15.03;50.11;100222.72;5072595;28;20083;-67
2022/04/24 01:37:37;;;;;;;11.07;10.03;;;14.80;99.90;;;15.10;50.59;100234.91;5072550;28;20048;-66
2022/04/24 01:40:07;;;;;;;11.93;10.45;;;14.80;99.90;;;15.12;50.80;100233.06;5073582;28;20317;-67
2022/04/24 01:42:36;;;;;;;10.93;9.82;;;14.80;99.90;;;15.11;50.69;100238.44;5076803;28;20052;-67
2022/04/24 01:45:05;;;;;;;11.00;9.90;;;14.80;99.90;;;15.11;50.87;100239.34;5076618;28;20037;-66
2022/04/24 01:47:33;;;;;;;11.65;10.45;;;14.80;99.90;;;15.10;50.87;100240.25;5076320;28;20105;-66
2022/04/24 01:50:02;;;;;;;12.77;10.70;;;14.80;99.90;;;15.09;51.61;100242.97;5076521;28;20076;-66
2022/04/24 01:52:33;;;;;;;12.73;11.18;;;14.70;99.90;;;14.89;51.44;100202.78;5076558;28;20120;-66
2022/04/24 01:55:04;;;;;;;12.18;10.95;;;14.70;99.90;;;15.06;51.54;100229.75;5076362;28;20372;-67
2022/04/24 01:57:32;;;;;;;12.32;11.02;;;14.70;99.90;;;15.10;51.63;100240.25;5076285;28;20068;-66
2022/04/24 02:00:00;;;;;;;12.68;11.27;;;14.80;99.90;;;14.96;52.12;100231.81;5058719;28;20072;-66
2022/04/24 02:02:29;;;;;;;12.50;11.25;;;14.70;99.90;;;14.98;52.37;100243.28;5076337;28;20127;-66
2022/04/24 02:04:57;;;;;;;16.45;12.38;;;14.70;99.90;;;14.87;52.85;100236.56;5076024;28;20432;-67
2022/04/24 02:07:26;;;;;;;13.60;12.20;;;14.60;99.90;;;14.74;53.40;100244.09;5075997;28;20052;-66
2022/04/24 02:09:54;;;;;;;14.77;13.15;;;14.50;99.90;;;14.73;53.45;100246.81;5075967;28;20135;-66
2022/04/24 02:12:24;;;;;;;14.30;13.00;;;14.40;99.90;;;14.76;54.19;100247.59;5075939;28;20048;-67
2022/04/24 02:14:53;;;;;;;14.77;13.30;;;14.40;99.90;;;14.70;54.34;100234.47;5076374;28;20045;-67
2022/04/24 02:17:21;;;;;;;16.50;14.32;;;14.40;99.90;;;14.67;54.79;100244.34;5076138;28;20079;-66
2022/04/24 02:19:49;;;;;;;15.57;13.82;;;14.40;99.90;;;14.70;54.49;100237.13;5075733;28;20052;-66
2022/04/24 02:22:19;;;;;;;15.75;14.13;;;14.40;99.90;;;14.67;54.95;100247.88;5075698;28;20135;-67
2022/04/24 02:24:48;;;;;;;15.65;14.05;;;14.40;99.90;;;14.52;55.57;100243.00;5075963;28;20189;-66
2022/04/24 02:27:16;;;;;;;15.57;13.98;;;14.20;99.90;;;14.60;55.49;100240.09;5075674;28;20102;-67
2022/04/24 02:29:46;;;;;;;17.13;14.93;;;14.30;99.90;;;14.49;55.58;100248.44;5075542;28;20044;-67
2022/04/24 02:32:14;;;;;;;16.42;14.75;;;14.20;99.90;;;14.51;55.86;100249.25;5057887;28;20494;-67
2022/04/24 02:34:42;;;;;;;16.77;15.15;;;14.20;99.90;;;13.87;56.18;100141.22;5075426;28;20067;-67
2022/04/24 02:37:13;;;;;;;17.63;15.52;;;14.20;99.90;;;14.43;56.31;100244.16;5075549;28;20051;-67
2022/04/24 02:39:42;;;;;;;18.73;16.02;;;14.20;99.90;;;14.40;56.67;100240.72;5075474;28;20457;-66
2022/04/24 02:42:10;;;;;;;16.88;15.20;;;14.10;99.90;;;14.34;57.18;100239.09;5075599;28;20102;-67
2022/04/24 02:44:39;;;;;;;19.75;15.95;;;14.10;99.90;;;14.28;57.27;100251.72;5075321;28;20045;-66
2022/04/24 02:47:09;;;;;;;18.83;15.70;;;14.00;99.90;;;14.12;57.56;100214.03;5075520;28;20043;-66
2022/04/24 02:49:38;;;;;;;18.33;16.42;;;14.00;99.90;;;14.10;57.45;100213.22;5075042;28;20132;-66
2022/04/24 02:52:07;;;;;;;18.52;16.55;;;14.00;99.90;;;14.22;57.72;100243.88;5074302;28;20447;-67
2022/04/24 02:54:35;;;;;;;19.98;16.80;;;14.00;99.90;;;14.14;58.19;100252.09;5075345;28;20040;-68
2022/04/24 02:57:05;;;;;;;18.55;16.63;;;13.80;99.90;;;14.02;58.33;100240.91;5057430;28;20053;-66
2022/04/24 02:59:33;;;;;;;20.40;17.35;;;13.80;99.90;;;14.05;58.71;100249.69;5075049;28;20061;-66
2022/04/24 03:02:03;;;;;;;19.50;17.40;;;13.80;99.90;;;14.06;58.70;100253.22;5075451;28;20095;-67
2022/04/24 03:04:33;;;;;;;18.98;16.98;;;13.80;99.90;;;13.95;58.93;100253.53;5075275;28;20482;-67
2022/04/24 03:07:02;;;;;;;21.70;17.50;;;13.70;99.90;;;13.91;59.39;100254.53;5075177;28;20044;-66
2022/04/24 03:09:30;;;;;;;20.67;17.50;;;13.70;99.90;;;13.94;59.41;100249.13;5075110;28;20052;-67
2022/04/24 03:11:59;;;;;;;19.75;17.05;;;13.70;99.90;;;13.81;59.65;100246.84;5074819;28;20072;-66
2022/04/24 03:14:27;;;;;;;20.05;17.15;;;13.60;99.90;;;13.91;59.62;100243.03;5075180;28;20044;-67
2022/04/24 03:16:56;;;;;;;18.23;16.35;;;13.60;99.90;;;13.92;59.86;100250.94;5074951;28;20445;-66
2022/04/24 03:19:24;;;;;;;20.77;16.75;;;13.60;99.90;;;13.85;59.88;100253.81;5074658;28;20041;-66
2022/04/24 03:21:54;;;;;;;18.95;16.30;;;13.60;99.90;;;13.61;60.14;100238.56;5074582;28;20494;-67
2022/04/24 03:24:22;;;;;;;20.67;16.33;;;13.40;99.90;;;13.68;60.69;100261.38;5074806;28;20087;-66
2022/04/24 03:26:51;;;;;;;18.52;16.60;;;13.40;99.90;;;13.72;60.91;100258.63;5074492;28;20045;-66
2022/04/24 03:29:19;;;;;;;19.65;16.38;;;13.40;99.90;;;13.59;60.56;100250.09;5074380;28;20486;-66
2022/04/24 03:31:47;;;;;;;22.05;17.30;;;13.40;99.90;;;13.60;60.62;100248.31;5074415;28;20123;-68
2022/04/24 03:34:16;;;;;;;19.50;17.13;;;13.40;99.90;;;13.59;60.56;100255.41;5074362;28;20072;-66
2022/04/24 03:36:44;;;;;;;19.23;15.93;;;13.30;99.90;;;13.54;60.92;100243.16;5074446;28;20037;-66
2022/04/24 03:39:14;;;;;;;19.63;16.52;;;13.30;99.90;;;13.50;60.81;100247.69;5074529;28;20649;-66
2022/04/24 03:41:43;;;;;;;17.52;15.68;;;13.20;99.90;;;13.43;60.89;100242.56;5073325;28;20052;-66
2022/04/24 03:44:11;;;;;;;18.80;16.55;;;13.20;99.90;;;13.52;61.03;100237.00;5074144;28;20048;-66
2022/04/24 03:46:39;;;;;;;20.02;16.73;;;13.30;99.90;;;13.57;60.67;100233.31;5074273;28;20066;-67
2022/04/24 03:49:08;;;;;;;19.27;16.65;;;13.30;99.90;;;13.52;60.71;100243.19;5073905;28;20466;-66
2022/04/24 03:51:36;;;;;;;17.85;15.95;;;13.30;99.90;;;13.66;60.81;100236.63;5074009;28;20048;-67
2022/04/24 03:54:04;;;;;;;17.00;15.27;;;13.30;99.90;;;13.54;60.98;100241.38;5073930;28;20056;-67
2022/04/24 03:56:34;;;;;;;16.42;14.60;;;13.30;99.90;;;13.28;60.88;100203.09;5074135;28;20041;-66
2022/04/24 03:59:03;;;;;;;17.57;15.13;;;13.20;99.90;;;13.48;60.77;100238.88;5074479;28;20074;-66
2022/04/24 04:01:32;;;;;;;18.27;16.38;;;13.20;99.90;;;13.54;60.87;100241.38;5074066;28;20613;-66
2022/04/24 04:04:00;;;;;;;17.92;15.43;;;13.30;99.90;;;13.50;60.60;100244.13;5073526;28;20437;-67
2022/04/24 04:06:29;;;;;;;17.25;15.45;;;13.20;99.90;;;13.41;60.67;100229.31;5073678;28;20139;-66
2022/04/24 04:08:57;;;;;;;17.40;15.30;;;13.20;99.90;;;13.32;60.84;100224.25;5072695;28;20041;-67
2022/04/24 04:11:28;;;;;;;17.33;15.52;;;13.20;99.90;;;13.54;60.50;100245.81;5073611;28;20119;-66
2022/04/24 04:13:58;;;;;;;;;;;13.20;99.90;;;13.54;60.52;100243.16;5074049;28;20040;-66
2022/04/24 04:16:26;;;;;;;18.58;14.70;;;13.30;99.90;;;13.49;60.51;100240.59;5073376;28;19959;-67
2022/04/24 04:18:55;;;;;;;18.33;15.45;;;13.30;99.90;;;13.51;60.46;100240.59;5073466;28;20071;-66
2022/04/24 04:21:23;;;;;;;19.25;15.00;;;13.20;99.90;;;13.45;60.50;100236.28;5073447;28;20051;-66
2022/04/24 04:23:52;;;;;;;17.10;14.75;;;13.20;99.90;;;13.46;60.65;100247.78;5073390;28;20048;-66
2022/04/24 04:26:20;;;;;;;16.10;14.40;;;13.20;99.90;;;13.46;60.54;100253.09;5073390;28;20461;-66
2022/04/24 04:28:50;;;;;;;18.88;15.65;;;13.20;99.90;;;13.37;60.90;100254.22;5073354;28;20068;-66
2022/04/24 04:31:20;;;;;;;18.40;15.00;;;13.10;99.90;;;13.33;60.92;100260.53;5073398;28;20110;-66
2022/04/24 04:33:49;;;;;;;19.33;15.25;;;13.10;99.90;;;13.26;61.15;100256.25;5055684;28;20071;-66
2022/04/24 04:36:17;;;;;;;15.93;14.30;;;13.00;99.90;;;13.22;61.20;100257.25;5055511;28;20044;-67
2022/04/24 04:38:45;;;;;;;16.17;14.30;;;12.90;99.90;;;13.23;61.36;100261.66;5073207;28;20128;-66
2022/04/24 04:41:14;;;;;;;19.00;15.52;;;13.00;99.90;;;13.20;61.43;100258.22;5073382;28;20049;-66
2022/04/24 04:43:42;;;;;;;17.17;13.85;;;12.90;99.90;;;12.73;61.52;100177.06;5073189;28;20044;-66
2022/04/24 04:46:10;;;;;;;18.27;14.15;;;12.90;99.90;;;13.29;61.47;100260.63;5073108;28;20490;-66
2022/04/24 04:48:40;;;;;;;18.23;14.70;;;13.00;99.90;;;13.28;61.57;100262.41;5073017;28;20148;-66
2022/04/24 04:51:09;;;;;;;17.07;13.90;;;13.00;99.90;;;13.27;61.44;100260.69;5073435;28;20094;-67
2022/04/24 04:53:37;;;;;;;15.57;13.40;;;13.00;99.90;;;13.28;61.16;100265.06;5073008;28;20047;-66
2022/04/24 04:56:06;;;;;;;14.82;13.23;;;13.00;99.90;;;13.16;61.27;100262.72;5073179;28;20131;-66
2022/04/24 04:58:34;;;;;;;19.38;13.45;;;13.00;99.90;;;12.93;61.38;100246.44;5073254;28;20068;-66
2022/04/24 05:01:03;;;;;;;15.48;13.18;;;12.90;99.90;;;13.16;61.28;100268.03;5072912;28;20643;-66
2022/04/24 05:03:31;;;;;;;15.18;13.57;;;12.90;99.90;;;13.17;61.49;100279.53;5055197;28;20490;-66
2022/04/24 05:06:01;;;;;;;18.15;13.55;;;12.90;99.90;;;13.10;61.50;100260.22;5073468;28;20037;-66
2022/04/24 05:08:30;;;;;;;16.50;13.65;;;12.90;99.90;;;13.19;61.17;100272.41;5073176;28;20051;-66
2022/04/24 05:10:59;;;;;;;15.60;13.90;;;13.00;99.90;;;13.12;61.29;100273.47;5072955;28;20055;-67
2022/04/24 05:13:27;;;;;;;14.10;12.70;;;12.90;99.90;;;13.17;61.38;100274.22;5072874;28;20040;-66
2022/04/24 05:15:56;;;;;;;15.88;12.65;;;12.90;99.90;;;13.18;61.31;100283.94;5075756;28;20553;-66
2022/04/24 05:18:25;;;;;;;16.42;13.32;;;12.90;99.90;;;13.15;61.32;100281.34;5077135;28;20068;-67
2022/04/24 05:20:54;;;;;;;14.82;13.23;;;12.90;99.90;;;13.26;61.23;100290.78;5076899;28;20127;-66
2022/04/24 05:23:24;;;;;;;14.90;13.02;;;13.00;99.90;;;13.37;61.09;100286.09;5077031;28;20467;-66
2022/04/24 05:25:52;;;;;;;17.17;13.18;;;13.10;99.90;;;13.42;60.56;100292.16;5076809;28;20449;-66
2022/04/24 05:28:21;;;;;;;16.42;13.40;;;13.20;99.90;;;13.51;60.05;100293.72;5077034;28;20113;-67
2022/04/24 05:30:49;;;;;;;15.55;12.60;;;13.20;99.90;;;13.58;60.13;100288.22;5076735;28;20106;-66
2022/04/24 05:33:18;;;;;;;13.20;11.80;;;13.30;99.90;;;11.68;59.58;99977.19;5058876;28;20135;-66
2022/04/24 05:35:46;;;;;;;15.30;12.52;;;13.30;99.90;;;13.58;59.82;100297.97;5076462;28;20098;-66
2022/04/24 05:38:15;;;;;;;13.80;12.18;;;13.30;99.90;;;13.72;59.57;100308.22;5076545;28;20119;-68
2022/04/24 05:40:44;;;;;;;13.85;12.18;;;13.40;99.90;;;13.82;59.08;100305.28;5076545;28;20462;-66
2022/04/24 05:43:13;;;;;;;14.48;12.38;;;13.50;99.90;;;13.86;58.60;100312.25;5076744;28;20134;-66
2022/04/24 05:45:41;;;;;;;14.05;12.60;;;13.50;99.90;;;13.97;58.81;100304.88;5058660;28;20578;-66
2022/04/24 05:48:10;;;;;;;13.73;11.73;;;13.70;99.90;;;13.90;58.12;100282.03;5058723;28;20053;-66
2022/04/24 05:50:38;;;;;;;13.75;12.32;;;13.80;99.90;;;14.14;58.12;100307.94;5076578;28;20494;-66
2022/04/24 05:53:07;;;;;;;14.30;12.50;;;13.80;99.90;;;14.17;57.96;100309.63;5076240;28;20074;-68
2022/04/24 05:55:35;;;;;;;15.65;12.15;;;13.90;99.90;;;14.34;57.53;100323.38;5058523;28;20139;-67
2022/04/24 05:58:05;;;;;;;13.73;11.45;;;14.00;99.90;;;14.59;56.65;100312.91;5057942;28;20118;-67
2022/04/24 06:00:36;;;;;;;12.02;10.90;;;14.20;99.90;;;14.80;56.50;100318.44;5076412;28;20048;-66
2022/04/24 06:03:04;;;;;;;;;;;14.50;99.90;;;14.89;55.58;100325.28;5076545;28;20048;-67
2022/04/24 06:05:33;;;;;;;13.20;11.80;;;14.60;99.90;;;14.74;55.60;100299.13;5076024;28;20026;-67
2022/04/24 06:08:01;;;;;;;17.08;11.93;;;14.60;99.90;;;15.06;55.17;100305.19;5075933;28;20047;-67
2022/04/24 06:10:30;;;;;;;15.10;11.75;;;14.80;99.90;;;15.22;54.65;100322.44;5074952;28;20052;-67
2022/04/24 06:12:59;;;;;;;12.30;11.18;;;14.90;99.90;;;15.21;54.90;100319.81;5075905;28;20076;-67
2022/04/24 06:15:29;;;;;;;14.45;11.35;;;14.90;99.90;;;15.32;54.45;100329.22;5076061;28;20045;-67
2022/04/24 06:17:59;;;;;;;11.43;10.30;;;15.00;99.90;;;15.34;54.14;100315.84;5075997;28;20068;-67
2022/04/24 06:20:29;;;;;;;14.65;11.43;;;15.10;99.90;;;15.56;53.72;100313.38;5075823;28;20052;-67
2022/04/24 06:23:00;;;;;;;12.55;9.90;;;15.30;99.90;;;15.81;53.48;100332.94;5076133;28;20045;-66
2022/04/24 06:25:32;;;;;;;13.20;10.65;;;15.50;99.90;;;15.88;53.20;100339.81;5075428;28;20094;-68
2022/04/24 06:28:01;;;;;;;13.27;10.35;;;15.60;99.90;;;15.87;53.20;100335.41;5075604;28;20106;-67
2022/04/24 06:30:35;;;;;;;11.75;10.50;;;15.60;99.90;;;15.88;52.67;100345.13;5075755;28;20086;-67
2022/04/24 06:33:03;;;;;;;11.77;10.57;;;15.60;99.90;;;16.05;52.79;100351.63;5075230;28;20052;-67
2022/04/24 06:35:31;;;;;;;12.20;10.98;;;15.70;99.90;;;16.17;52.64;100343.22;5075419;28;20076;-67
2022/04/24 06:38:00;;;;;;;12.27;10.75;;;15.80;99.90;;;16.01;52.10;100346.44;5075315;28;20561;-67
2022/04/24 06:40:28;;;;;;;17.50;13.80;;;15.70;99.90;;;16.15;51.79;100345.06;5075311;28;20037;-67
2022/04/24 06:42:59;;;;;;;13.68;11.00;;;15.80;99.90;;;16.12;52.08;100349.63;5075197;28;20044;-67
2022/04/24 06:45:31;;;;;;;11.73;10.52;;;15.80;99.90;;;16.20;51.80;100340.41;5074802;28;20568;-67
2022/04/24 06:48:04;;;;;;;11.40;10.20;;;15.90;99.90;;;16.26;51.24;100350.88;5075198;28;20547;-67
2022/04/24 06:50:34;;;;;;;14.98;11.57;;;15.90;99.90;;;16.09;50.91;100312.38;5057387;28;20060;-67
2022/04/24 06:53:05;;;;;;;;;;;16.00;99.90;;;16.45;50.99;100350.22;5058216;28;20059;-67
2022/04/24 06:55:36;;;;;;;12.53;10.10;;;16.20;99.90;;;16.62;51.09;100356.72;5075112;28;19920;-66
2022/04/24 06:58:06;;;;;;;15.02;10.00;;;16.20;99.90;;;16.82;50.46;100348.81;5074973;28;20334;-67
2022/04/24 07:00:39;;;;;;;13.43;9.70;;;16.50;99.90;;;17.02;50.07;100356.06;5075115;28;20101;-65
2022/04/24 07:03:30;;;;;;;10.57;9.50;;;16.70;99.90;;;17.19;49.60;100358.94;5075010;28;20405;-65
2022/04/24 07:06:00;;;;;;;10.85;9.70;;;16.80;99.90;;;17.28;49.07;100363.06;5074853;28;20405;-65
2022/04/24 07:08:30;;;;;;;12.45;10.52;;;17.00;99.90;;;17.30;49.58;100390.59;5057159;28;20102;-65
2022/04/24 07:10:59;;;;;;;10.27;9.38;;;17.10;99.90;;;17.44;49.01;100356.16;5074851;28;20131;-64
2022/04/24 07:13:27;;;;;;;11.00;9.70;;;17.20;99.90;;;17.61;48.74;100367.97;5074846;28;20044;-64
2022/04/24 07:15:59;;;;;;;16.52;10.93;;;17.30;99.90;;;17.63;48.52;100363.41;5074498;28;20343;-65
2022/04/24 07:18:28;;;;;;;12.85;10.30;;;17.30;99.90;;;17.60;48.02;100359.97;5074772;28;20045;-64
2022/04/24 07:20:58;;;;;;;13.52;10.63;;;17.40;99.90;;;17.69;48.23;100354.25;5073933;28;20499;-65
2022/04/24 07:23:26;;;;;;;12.35;10.77;;;17.50;99.90;;;17.95;48.32;100367.41;5074224;28;20045;-65
2022/04/24 07:25:55;;;;;;;11.15;10.05;;;17.60;99.90;;;17.94;47.71;100366.53;5074452;28;20436;-65
2022/04/24 07:28:23;;;;;;;12.77;10.32;;;17.70;99.90;;;18.23;48.06;100378.69;5074817;28;20394;-64
2022/04/24 07:30:51;;;;;;;10.57;9.48;;;17.90;99.90;;;18.26;47.82;100381.22;5074531;28;20070;-65
2022/04/24 07:33:21;;;;;;;10.50;9.60;;;18.00;99.90;;;18.30;46.92;100368.53;5074247;28;20041;-65
2022/04/24 07:35:50;;;;;;;16.30;10.63;;;18.00;99.90;;;18.04;47.03;100348.25;5074477;28;20071;-64
2022/04/24 07:38:18;;;;;;;15.18;11.60;;;17.90;99.90;;;18.28;47.57;100381.13;5073413;28;20040;-64
2022/04/24 07:40:47;;;;;;;14.00;11.18;;;17.90;99.90;;;18.40;47.06;100381.47;5056385;28;20128;-65
2022/04/24 07:43:15;;;;;;;14.30;9.77;;;18.00;99.90;;;18.43;46.73;100378.69;5073838;28;20379;-64
2022/04/24 07:45:47;;;;;;;11.23;10.02;;;18.20;99.90;;;18.45;46.97;100383.97;5073932;28;20405;-62
2022/04/24 07:48:17;;;;;;;14.30;9.52;;;18.20;99.90;;;18.66;46.84;100393.75;5073928;28;20494;-63
2022/04/24 07:50:48;;;;;;;10.32;9.32;;;18.30;99.90;;;18.52;46.57;100386.34;5073636;28;20083;-63
2022/04/24 07:53:18;;;;;;;16.02;13.50;;;18.20;99.90;;;18.75;46.79;100401.38;5073689;28;20044;-62
2022/04/24 07:55:49;;;;;;;10.57;9.57;;;18.40;99.90;;;18.62;46.10;100382.28;5073657;28;20040;-62
2022/04/24 07:58:19;;;;;;;14.65;9.75;;;18.40;99.90;;;18.77;46.43;100389.66;5073669;28;20040;-61
2022/04/24 08:00:48;;;;;;;11.05;9.40;;;18.40;99.90;;;18.81;45.86;100388.53;5073893;28;20052;-65
2022/04/24 08:03:19;;;;;;;10.77;8.93;;;18.50;99.90;;;18.95;46.27;100384.38;5073813;28;20048;-65
2022/04/24 08:05:52;;;;;;;10.63;9.20;;;18.60;99.90;;;19.07;45.64;100390.03;5074048;28;20045;-66
2022/04/24 08:08:23;;;;;;;10.02;9.00;;;18.80;99.90;;;19.18;45.70;100394.91;5073380;28;20098;-67
2022/04/24 08:10:53;;;;;;;10.98;9.20;;;18.90;99.90;;;19.27;45.61;100397.13;5073639;28;20048;-69
2022/04/24 08:13:22;;;;;;;;;;;19.00;99.90;;;19.32;45.51;100398.69;5073919;28;20044;-73
2022/04/24 08:15:51;;;;;;;10.75;9.20;;;19.10;99.90;;;19.41;44.73;100400.06;5073260;28;19927;-72
2022/04/24 08:18:20;;;;;;;10.57;9.48;;;19.10;99.90;;;19.32;44.00;100400.44;5073527;28;20230;-69
2022/04/24 08:20:50;;;;;;;12.57;8.90;;;19.10;99.90;;;19.42;44.61;100407.16;5073506;28;20146;-70
2022/04/24 08:23:18;;;;;;;11.90;9.43;;;19.10;99.90;;;19.31;44.16;100409.47;5073570;28;20068;-70
2022/04/24 08:25:47;;;;;;;10.70;9.60;;;19.00;99.90;;;19.37;44.38;100396.66;5073017;28;20783;-70
2022/04/24 08:28:16;;;;;;;12.65;9.98;;;19.20;99.90;;;19.44;44.63;100410.63;5073109;28;20068;-72
2022/04/24 08:30:48;;;;;;;14.40;11.30;;;19.20;99.90;;;19.55;44.73;100419.06;5072890;28;20036;-73
2022/04/24 08:33:17;;;;;;;14.30;11.00;;;19.30;99.90;;;19.58;44.14;100416.22;5073080;28;20046;-74
2022/04/24 08:35:48;;;;;;;11.98;9.52;;;19.30;99.90;;;19.54;44.08;100395.84;5072997;28;20131;-72
2022/04/24 08:38:18;;;;;;;12.55;10.50;;;19.30;99.90;;;19.60;43.96;100414.34;5072019;28;20052;-70
2022/04/24 08:40:47;;;;;;;13.57;10.75;;;19.40;99.90;;;19.65;44.65;100420.34;5073386;28;20045;-70
2022/04/24 08:43:16;;;;;;;13.43;10.40;;;19.40;99.90;;;19.57;44.04;100385.81;5073060;28;20066;-72
2022/04/24 08:45:47;;;;;;;12.52;10.65;;;19.50;99.90;;;19.88;43.77;100425.44;5073006;28;20056;-72
2022/04/24 08:48:16;;;;;;;14.30;9.80;;;19.60;99.90;;;19.94;43.36;100414.41;5072845;28;20049;-73
2022/04/24 08:50:45;;;;;;;16.00;10.25;;;19.70;99.90;;;19.89;44.29;100423.63;5072160;28;20084;-70
2022/04/24 08:53:15;;;;;;;12.82;9.82;;;19.60;99.90;;;19.87;44.09;100425.53;5071746;28;20502;-75
2022/04/24 08:55:45;;;;;;;10.43;9.43;;;19.60;99.90;;;20.04;43.59;100433.59;5073636;28;20044;-72
2022/04/24 08:58:16;;;;;;;11.50;10.30;;;19.70;99.90;;;20.03;43.50;100432.75;5072766;28;20123;-74
2022/04/24 09:00:45;;;;;;;11.55;10.35;;;19.70;99.90;;;20.13;43.84;100436.69;5073072;28;20446;-70
2022/04/24 09:03:14;;;;;;;14.27;10.70;;;19.80;99.90;;;20.09;44.30;100436.94;5072992;28;20044;-74
2022/04/24 09:05:43;;;;;;;13.07;11.13;;;19.80;99.90;;;20.02;43.90;100435.50;5072611;28;20543;-70
2022/04/24 09:08:14;;;;;;;11.18;10.07;;;19.80;99.90;;;20.09;44.10;100426.22;5072987;28;20455;-70
2022/04/24 09:11:03;;;;;;;12.25;9.82;;;19.80;99.90;;;20.22;44.10;100436.28;5072692;28;20078;-71
2022/04/24 09:14:14;;;;;;;11.95;10.75;;;19.90;99.90;;;20.29;44.07;100443.06;5073354;28;20037;-69
2022/04/24 09:16:34;;;;;;;11.60;9.85;;;20.10;99.90;;;20.13;43.75;100431.31;5072494;28;20049;-75
2022/04/24 09:19:03;;;;;;;12.20;11.02;;;20.00;99.90;;;20.24;44.28;100441.56;5072756;28;20135;-77
2022/04/24 09:21:32;;;;;;;12.40;9.68;;;20.00;99.90;;;20.25;43.34;100437.91;5072709;28;20071;-75
2022/04/24 09:24:01;;;;;;;12.15;10.20;;;20.10;99.90;;;20.43;43.12;100450.44;5072486;28;20048;-72
2022/04/24 09:26:31;;;;;;;12.43;10.10;;;20.10;99.90;;;20.53;43.11;100436.44;5072679;28;20048;-72
2022/04/24 09:29:12;;;;;;;12.63;9.80;;;20.20;99.90;;;20.27;43.50;100431.53;5072661;28;20044;-71
2022/04/24 09:31:46;;;;;;;10.25;9.07;;;20.10;99.90;;;20.43;44.24;100427.13;5072504;28;20482;-71
2022/04/24 09:34:16;;;;;;;12.52;10.45;;;20.30;99.90;;;20.72;43.34;100452.47;5054475;28;20087;-74
2022/04/24 09:36:45;;;;;;;12.65;9.70;;;20.40;99.90;;;20.98;43.09;100448.41;5072618;28;20459;-75
2022/04/24 09:39:14;;;;;;;10.30;9.23;;;20.60;99.90;;;21.14;42.96;100452.00;5072711;28;20072;-74
2022/04/24 09:41:43;;;;;;;11.20;9.98;;;20.80;99.90;;;21.08;43.03;100453.22;5072093;28;20048;-76
2022/04/24 09:44:14;;;;;;;10.60;9.50;;;20.80;99.90;;;21.12;42.09;100449.41;5072536;28;20048;-77
2022/04/24 09:46:43;;;;;;;9.80;8.90;;;20.80;99.90;;;20.86;42.50;100381.84;5072399;28;20072;-76
2022/04/24 09:49:12;;;;;;;13.93;9.98;;;20.90;99.90;;;21.35;41.86;100440.94;5054374;28;20562;-70
2022/04/24 09:51:43;;;;;;;12.30;9.20;;;21.10;99.90;;;21.52;41.70;100448.09;5072498;28;20050;-70
2022/04/24 09:54:12;;;;;;;20.85;9.35;;;21.20;99.90;;;21.29;41.83;100445.81;5054900;28;20075;-72
2022/04/24 09:56:45;;;;;;;11.10;9.50;;;21.10;99.90;;;21.51;42.09;100451.72;5072481;28;20057;-71
2022/04/24 09:59:14;;;;;;;15.15;9.75;;;21.20;99.90;;;21.59;41.59;100449.47;5072536;28;20143;-71
2022/04/24 10:01:42;;;;;;;12.20;8.77;;;21.30;99.90;;;21.62;41.16;100443.06;5074330;28;20051;-72
2022/04/24 10:04:11;;;;;;;10.32;9.23;;;21.40;99.90;;;21.59;41.10;100454.88;5075823;28;20048;-75
2022/04/24 10:06:42;;;;;;;13.80;10.52;;;21.40;99.90;;;21.52;40.69;100458.88;5075597;28;20036;-73
2022/04/24 10:09:13;;;;;;;12.10;10.07;;;21.30;99.90;;;21.32;41.05;100402.59;5075777;28;20055;-74
2022/04/24 10:11:43;;;;;;;13.32;9.43;;;21.30;99.90;;;21.83;40.46;100453.53;5075822;28;20052;-78